createdAt,value
2018-11-26T00:02:54.452Z,5.77
2018-11-26T00:07:59.382Z,5.90
2018-11-26T00:13:04.376Z,5.93
2018-11-26T00:18:09.326Z,5.73
2018-11-26T00:23:14.312Z,5.00
2018-11-26T00:28:19.481Z,6.20
2018-11-26T00:33:24.445Z,6.13
2018-11-26T00:38:29.352Z,6.07
2018-11-26T00:43:34.428Z,6.03
2018-11-26T00:48:39.313Z,5.57
2018-11-26T00:53:44.306Z,4.53
2018-11-26T00:58:49.526Z,3.93
2018-11-26T01:04:10.301Z,4.67
2018-11-26T01:09:15.158Z,4.93
2018-11-26T01:14:20.406Z,4.13
2018-11-26T01:19:25.345Z,3.93
2018-11-26T01:24:30.583Z,3.73
2018-11-26T01:29:35.474Z,4.20
2018-11-26T01:34:40.507Z,4.43
2018-11-26T01:39:45.545Z,4.00
2018-11-26T01:44:50.706Z,3.80
2018-11-26T01:49:55.552Z,4.07
2018-11-26T01:55:00.423Z,4.00
2018-11-26T02:00:13.321Z,3.97
2018-11-26T02:05:18.340Z,3.77
2018-11-26T02:10:23.358Z,3.50
2018-11-26T02:15:38.721Z,2.90
2018-11-26T02:20:43.650Z,2.93
2018-11-26T02:25:49.072Z,3.13
2018-11-26T02:30:54.162Z,3.47
2018-11-26T02:35:59.053Z,2.83
2018-11-26T02:41:04.218Z,4.20
2018-11-26T02:46:09.558Z,4.37
2018-11-26T02:51:14.554Z,4.53
2018-11-26T02:56:19.882Z,4.50
2018-11-26T03:01:25.160Z,4.30
2018-11-26T03:06:30.182Z,4.20
2018-11-26T03:11:35.050Z,4.53
2018-11-26T03:16:40.022Z,4.10
2018-11-26T03:21:44.927Z,5.17
2018-11-26T03:26:50.071Z,4.80
2018-11-26T03:31:54.949Z,5.13
2018-11-26T03:36:59.985Z,6.10
2018-11-26T03:42:05.040Z,5.57
2018-11-26T03:47:10.267Z,5.37
2018-11-26T03:52:15.191Z,4.67
2018-11-26T03:57:20.114Z,5.03
2018-11-26T04:02:25.173Z,4.77
2018-11-26T04:07:30.251Z,4.50
2018-11-26T04:12:35.193Z,3.77
2018-11-26T04:17:40.119Z,3.60
2018-11-26T04:22:44.966Z,3.87
2018-11-26T04:27:50.208Z,4.10
2018-11-26T04:32:55.175Z,5.20
2018-11-26T04:38:00.071Z,5.97
2018-11-26T04:43:05.249Z,6.10
2018-11-26T04:48:10.279Z,4.97
2018-11-26T04:53:15.243Z,6.80
2018-11-26T04:58:21.442Z,5.50
2018-11-26T05:03:26.314Z,4.40
2018-11-26T05:08:31.327Z,4.97
2018-11-26T05:13:36.477Z,4.23
2018-11-26T05:18:41.960Z,4.53
2018-11-26T05:23:46.878Z,4.47
2018-11-26T05:28:51.890Z,4.20
2018-11-26T05:33:56.860Z,4.17
2018-11-26T05:39:01.721Z,3.97
2018-11-26T05:44:06.790Z,4.77
2018-11-26T05:49:11.649Z,5.57
2018-11-26T05:54:16.659Z,5.20
2018-11-26T05:59:21.528Z,4.10
2018-11-26T06:04:26.573Z,6.20
2018-11-26T06:09:31.453Z,7.50
2018-11-26T06:14:36.375Z,6.73
2018-11-26T06:19:41.442Z,6.97
2018-11-26T06:24:47.233Z,7.73
2018-11-26T06:29:52.309Z,6.47
2018-11-26T06:34:58.274Z,7.50
2018-11-26T06:40:03.297Z,7.43
2018-11-26T06:45:13.340Z,7.50
2018-11-26T06:50:19.109Z,8.33
2018-11-26T06:55:24.086Z,9.90
2018-11-26T07:00:28.961Z,7.73
2018-11-26T07:05:34.011Z,7.70
2018-11-26T07:10:39.385Z,6.90
2018-11-26T07:15:44.359Z,7.77
2018-11-26T07:20:51.022Z,9.00
2018-11-26T07:25:56.245Z,10.20
2018-11-26T07:31:01.266Z,10.03
2018-11-26T07:36:11.153Z,7.63
2018-11-26T07:41:11.240Z,8.43
2018-11-26T07:46:16.323Z,8.20
2018-11-26T07:51:21.365Z,9.43
2018-11-26T07:56:26.402Z,9.60
2018-11-26T08:01:31.706Z,10.00
2018-11-26T08:06:36.617Z,11.17
2018-11-26T08:11:41.625Z,11.40
2018-11-26T08:16:46.786Z,11.57
2018-11-26T08:21:51.802Z,10.57
2018-11-26T08:26:56.667Z,9.37
2018-11-26T08:32:01.628Z,8.13
2018-11-26T08:37:11.721Z,12.57
2018-11-26T08:42:26.413Z,13.83
2018-11-26T08:47:37.736Z,12.27
2018-11-26T08:52:43.163Z,13.17
2018-11-26T08:57:48.385Z,12.17
2018-11-26T09:03:01.188Z,12.07
2018-11-26T09:08:06.138Z,12.53
2018-11-26T09:13:17.572Z,12.07
2018-11-26T09:18:22.504Z,12.07
2018-11-26T09:23:27.530Z,11.93
2018-11-26T09:28:32.549Z,12.80
2018-11-26T09:33:37.574Z,38.37
2018-11-26T09:38:42.539Z,12.43
2018-11-26T09:43:47.721Z,9.40
2018-11-26T09:48:54.494Z,9.73
2018-11-26T09:53:59.855Z,8.40
2018-11-26T09:59:05.399Z,8.87
2018-11-26T10:04:10.403Z,5.40
2018-11-26T10:09:15.393Z,6.10
2018-11-26T10:14:20.321Z,4.93
2018-11-26T10:19:25.917Z,5.90
2018-11-26T10:24:30.967Z,5.33
2018-11-26T10:29:36.034Z,5.23
2018-11-26T10:34:41.069Z,4.43
2018-11-26T10:39:52.534Z,4.53
2018-11-26T10:44:58.503Z,4.30
2018-11-26T10:50:03.517Z,3.40
2018-11-26T10:55:11.385Z,3.37
2018-11-26T11:00:22.458Z,4.80
2018-11-26T11:05:28.374Z,3.20
2018-11-26T11:10:34.133Z,3.40
2018-11-26T11:15:40.107Z,4.07
2018-11-26T11:20:45.050Z,4.90
2018-11-26T11:25:50.022Z,4.23
2018-11-26T11:30:55.874Z,8.00
2018-11-26T11:36:00.888Z,5.33
2018-11-26T11:41:06.027Z,5.87
2018-11-26T11:46:10.918Z,6.00
2018-11-26T11:51:16.889Z,2.70
2018-11-26T11:56:22.043Z,2.17
2018-11-26T12:01:27.210Z,3.20
2018-11-26T12:06:32.103Z,4.57
2018-11-26T12:11:37.154Z,5.03
2018-11-26T12:16:42.119Z,4.83
2018-11-26T12:21:47.035Z,4.20
2018-11-26T12:26:53.073Z,6.07
2018-11-26T12:31:59.139Z,4.40
2018-11-26T12:37:04.051Z,5.17
2018-11-26T12:42:09.025Z,6.43
2018-11-26T12:47:13.928Z,6.47
2018-11-26T12:52:18.919Z,6.67
2018-11-26T12:57:23.943Z,5.70
2018-11-26T13:02:28.919Z,4.60
2018-11-26T13:07:33.960Z,5.17
2018-11-26T13:12:38.951Z,4.80
2018-11-26T13:17:43.911Z,4.30
2018-11-26T13:22:48.902Z,4.10
2018-11-26T13:27:56.136Z,4.53
2018-11-26T13:33:03.004Z,4.00
2018-11-26T13:38:08.919Z,2.30
2018-11-26T13:43:20.431Z,2.20
2018-11-26T13:48:25.670Z,2.10
2018-11-26T13:53:30.671Z,1.53
2018-11-26T13:58:35.755Z,4.23
2018-11-26T14:03:40.935Z,1.50
2018-11-26T14:08:45.907Z,1.40
2018-11-26T14:13:50.920Z,1.37
2018-11-26T14:18:56.009Z,1.00
2018-11-26T14:24:00.894Z,1.10
2018-11-26T14:29:06.036Z,1.40
2018-11-26T14:34:11.096Z,1.37
2018-11-26T14:39:16.055Z,1.43
2018-11-26T14:44:20.898Z,0.70
2018-11-26T14:49:26.820Z,1.00
2018-11-26T14:54:31.774Z,1.00
2018-11-26T14:59:36.673Z,1.30
2018-11-26T15:04:41.622Z,1.10
2018-11-26T15:09:46.596Z,1.10
2018-11-26T15:14:51.622Z,2.30
2018-11-26T15:19:56.673Z,1.37
2018-11-26T15:25:01.523Z,1.30
2018-11-26T15:30:10.099Z,1.80
2018-11-26T15:35:18.916Z,3.90
2018-11-26T15:40:24.095Z,1.40
2018-11-26T15:45:29.723Z,1.87
2018-11-26T15:50:34.740Z,3.60
2018-11-26T15:55:39.643Z,2.50
2018-11-26T16:00:44.647Z,4.73
2018-11-26T16:05:52.612Z,4.30
2018-11-26T16:10:57.820Z,3.10
2018-11-26T16:16:02.775Z,2.93
2018-11-26T16:21:07.666Z,3.17
2018-11-26T16:26:12.577Z,3.67
2018-11-26T16:31:17.544Z,6.20
2018-11-26T16:36:22.476Z,5.13
2018-11-26T16:41:27.401Z,7.00
2018-11-26T16:46:32.392Z,4.83
2018-11-26T16:51:37.479Z,4.47
2018-11-26T16:56:44.364Z,5.23
2018-11-26T17:01:49.252Z,6.60
2018-11-26T17:06:54.412Z,5.73
2018-11-26T17:11:59.447Z,5.77
2018-11-26T17:17:04.509Z,5.23
2018-11-26T17:22:09.485Z,5.67
2018-11-26T17:27:14.538Z,5.10
2018-11-26T17:32:19.577Z,5.50
2018-11-26T17:37:26.639Z,4.63
2018-11-26T17:42:32.596Z,2.10
2018-11-26T17:47:37.792Z,2.10
2018-11-26T17:52:42.951Z,1.30
2018-11-26T17:57:47.974Z,3.20
2018-11-26T18:02:53.387Z,3.60
2018-11-26T18:08:05.174Z,6.37
2018-11-26T18:13:10.331Z,4.97
2018-11-26T18:18:16.890Z,4.90
2018-11-26T18:23:22.027Z,13.73
2018-11-26T18:28:28.193Z,4.90
2018-11-26T18:33:32.801Z,14.67
2018-11-26T18:38:38.839Z,14.13
2018-11-26T18:43:43.791Z,10.43
2018-11-26T18:48:48.945Z,6.30
2018-11-26T18:53:54.194Z,7.90
2018-11-26T18:58:59.377Z,12.47
2018-11-26T19:04:05.220Z,12.53
2018-11-26T19:09:10.333Z,7.93
2018-11-26T19:14:18.283Z,10.30
2018-11-26T19:19:29.817Z,10.27
2018-11-26T19:24:34.884Z,7.60
2018-11-26T19:29:39.928Z,7.70
2018-11-26T19:34:45.763Z,7.87
2018-11-26T19:39:50.947Z,9.47
2018-11-26T19:44:56.951Z,10.33
2018-11-26T19:50:03.509Z,13.83
2018-11-26T19:55:15.262Z,9.07
2018-11-26T20:00:22.654Z,9.73
2018-11-26T20:05:40.128Z,9.80
2018-11-26T20:10:45.166Z,11.43
2018-11-26T20:15:50.609Z,9.93
2018-11-26T20:20:55.655Z,11.77
2018-11-26T20:26:00.932Z,10.90
2018-11-26T20:31:07.426Z,8.40
2018-11-26T20:36:13.744Z,11.00
2018-11-26T20:41:18.694Z,10.43
2018-11-26T20:46:23.990Z,11.77
2018-11-26T20:51:28.864Z,21.87
2018-11-26T20:56:33.823Z,9.03
2018-11-26T21:01:38.938Z,10.67
2018-11-26T21:06:43.928Z,10.13
2018-11-26T21:11:49.342Z,7.60
2018-11-26T21:16:54.382Z,5.87
2018-11-26T21:21:59.471Z,4.73
2018-11-26T21:27:04.705Z,6.20
2018-11-26T21:32:09.719Z,5.93
2018-11-26T21:37:15.727Z,5.97
2018-11-26T21:42:20.678Z,6.80
2018-11-26T21:47:25.656Z,4.73
2018-11-26T21:52:30.658Z,5.60
2018-11-26T21:57:36.570Z,6.17
2018-11-26T22:02:41.587Z,5.90
2018-11-26T22:07:46.619Z,7.10
2018-11-26T22:12:53.641Z,6.73
2018-11-26T22:17:58.686Z,6.10
2018-11-26T22:23:03.635Z,5.83
2018-11-26T22:28:11.043Z,6.13
2018-11-26T22:33:16.022Z,7.03
2018-11-26T22:38:21.231Z,7.33
2018-11-26T22:43:26.537Z,6.87
2018-11-26T22:48:31.542Z,6.63
2018-11-26T22:53:36.407Z,7.37
2018-11-26T22:58:41.412Z,7.97
2018-11-26T23:03:46.309Z,7.37
2018-11-26T23:08:51.452Z,7.83
2018-11-26T23:13:56.327Z,2.43
2018-11-26T23:19:01.279Z,6.03
2018-11-26T23:24:06.402Z,2.87
2018-11-26T23:29:11.494Z,2.63
2018-11-26T23:34:16.436Z,2.03
2018-11-26T23:39:22.188Z,1.20
2018-11-26T23:44:27.171Z,1.00
2018-11-26T23:49:32.205Z,2.57
2018-11-26T23:54:37.106Z,1.67
2018-11-26T23:59:42.008Z,1.47
